createdAt,value
2019-01-13T00:04:21.699Z,75.31
2019-01-13T00:13:06.892Z,75.74
2019-01-13T00:16:15.823Z,75.77
2019-01-13T00:18:45.356Z,75.40
2019-01-13T00:24:30.308Z,75.89
2019-01-13T00:26:59.820Z,75.63
2019-01-13T00:29:29.510Z,75.52
2019-01-13T00:35:13.320Z,75.37
2019-01-13T00:41:07.976Z,75.75
2019-01-13T00:49:18.342Z,76.05
2019-01-13T01:01:12.789Z,75.97
2019-01-13T01:06:51.349Z,76.05
2019-01-13T01:09:21.363Z,76.30
2019-01-13T01:15:12.032Z,76.44
2019-01-13T01:23:34.201Z,76.91
2019-01-13T01:26:06.258Z,77.07
2019-01-13T01:28:37.663Z,77.15
2019-01-13T01:31:46.716Z,76.75
2019-01-13T01:37:17.709Z,77.22
2019-01-13T01:45:53.645Z,77.37
2019-01-13T01:49:06.036Z,77.02
2019-01-13T01:51:35.731Z,77.42
2019-01-13T01:57:19.283Z,77.37
2019-01-13T02:00:28.516Z,77.59
2019-01-13T02:03:37.529Z,77.57
2019-01-13T02:09:12.826Z,77.40
2019-01-13T02:20:41.581Z,77.02
2019-01-13T02:23:12.056Z,76.96
2019-01-13T02:26:20.762Z,76.97
2019-01-13T02:31:52.926Z,76.82
2019-01-13T02:34:22.286Z,76.69
2019-01-13T02:45:38.979Z,76.89
2019-01-13T02:48:47.991Z,76.83
2019-01-13T02:54:12.774Z,76.75
2019-01-13T02:57:21.487Z,76.88
2019-01-13T03:00:31.477Z,76.79
2019-01-13T03:03:21.976Z,76.54
2019-01-13T03:06:30.710Z,76.38
2019-01-13T03:12:09.332Z,76.37
2019-01-13T03:15:19.954Z,76.41
2019-01-13T03:18:28.960Z,76.14
2019-01-13T03:21:12.181Z,76.16
2019-01-13T03:23:53.921Z,76.20
2019-01-13T03:26:42.356Z,76.45
2019-01-13T03:29:51.182Z,76.52
2019-01-13T03:35:30.431Z,76.40
2019-01-13T03:37:59.837Z,76.51
2019-01-13T03:47:09.004Z,77.08
2019-01-13T03:49:38.436Z,76.86
2019-01-13T03:55:28.022Z,77.28
2019-01-13T03:57:57.619Z,76.92
2019-01-13T04:00:48.152Z,77.22
2019-01-13T04:03:18.272Z,77.52
2019-01-13T04:06:27.392Z,77.25
2019-01-13T04:08:56.926Z,77.38
2019-01-13T04:11:26.353Z,77.51
2019-01-13T04:16:52.710Z,77.57
2019-01-13T04:19:42.954Z,77.69
2019-01-13T04:22:12.804Z,77.80
2019-01-13T04:24:42.670Z,77.77
2019-01-13T04:27:12.256Z,77.81
2019-01-13T04:32:38.313Z,77.93
2019-01-13T04:38:32.381Z,77.87
2019-01-13T04:41:23.140Z,78.26
2019-01-13T04:43:52.746Z,78.39
2019-01-13T04:46:22.768Z,78.12
2019-01-13T04:49:31.794Z,78.21
2019-01-13T04:55:15.908Z,78.54
2019-01-13T04:57:45.477Z,78.36
2019-01-13T05:00:39.391Z,78.50
2019-01-13T05:06:19.478Z,78.38
2019-01-13T05:09:28.359Z,78.56
2019-01-13T05:12:37.167Z,78.44
2019-01-13T05:21:29.046Z,78.35
2019-01-13T05:24:37.978Z,78.32
2019-01-13T05:27:27.925Z,78.08
2019-01-13T05:33:12.198Z,78.19
2019-01-13T05:35:42.379Z,78.04
2019-01-13T05:38:12.215Z,77.68
2019-01-13T05:43:49.050Z,77.75
2019-01-13T05:46:18.707Z,77.78
2019-01-13T05:49:07.881Z,77.80
2019-01-13T05:57:28.323Z,78.08
2019-01-13T06:02:56.256Z,77.84
2019-01-13T06:08:24.546Z,77.79
2019-01-13T06:11:33.581Z,77.78
2019-01-13T06:17:28.180Z,77.91
2019-01-13T06:26:00.375Z,77.73
2019-01-13T06:37:32.889Z,77.70
2019-01-13T06:43:16.580Z,77.70
2019-01-13T06:51:32.179Z,78.02
2019-01-13T06:54:01.693Z,78.15
2019-01-13T06:56:31.236Z,78.34
2019-01-13T06:59:40.035Z,78.33
2019-01-13T07:05:05.643Z,78.08
2019-01-13T07:07:37.445Z,78.42
2019-01-13T07:10:09.065Z,78.38
2019-01-13T07:12:38.714Z,78.18
2019-01-13T07:15:48.707Z,78.04
2019-01-13T07:23:53.451Z,78.18
2019-01-13T07:29:32.278Z,78.23
2019-01-13T07:32:22.338Z,78.04
2019-01-13T07:37:53.958Z,77.95
2019-01-13T07:41:03.510Z,78.04
2019-01-13T07:44:12.491Z,77.89
2019-01-13T07:46:42.440Z,77.96
2019-01-13T07:49:11.907Z,77.70
2019-01-13T07:52:20.693Z,77.76
2019-01-13T07:55:11.423Z,77.76
2019-01-13T07:58:20.408Z,77.77
2019-01-13T08:04:10.346Z,77.49
2019-01-13T08:09:52.651Z,77.43
2019-01-13T08:15:57.216Z,77.39
2019-01-13T08:18:27.077Z,77.26
2019-01-13T08:20:56.986Z,76.79
2019-01-13T08:23:26.415Z,76.90
2019-01-13T08:25:56.508Z,76.88
2019-01-13T08:28:26.204Z,76.60
2019-01-13T08:34:09.860Z,75.73
2019-01-13T08:36:59.482Z,75.64
2019-01-13T08:39:28.952Z,75.15
2019-01-13T08:48:15.280Z,74.86
2019-01-13T08:51:25.950Z,75.21
2019-01-13T08:53:55.413Z,75.20
2019-01-13T08:56:25.248Z,75.26
2019-01-13T08:58:54.691Z,75.47
2019-01-13T09:01:25.058Z,75.34
2019-01-13T09:03:54.946Z,75.20
2019-01-13T09:06:43.783Z,75.09
2019-01-13T09:12:07.306Z,74.94
2019-01-13T09:14:57.487Z,74.68
2019-01-13T09:20:45.132Z,74.82
2019-01-13T09:23:14.675Z,74.85
2019-01-13T09:25:44.105Z,75.19
2019-01-13T09:28:14.175Z,74.82
2019-01-13T09:30:43.587Z,75.31
2019-01-13T09:33:13.503Z,74.92
2019-01-13T09:35:43.730Z,74.55
2019-01-13T09:44:17.886Z,75.32
2019-01-13T09:46:47.380Z,75.70
2019-01-13T09:49:16.933Z,75.21
2019-01-13T09:52:05.763Z,74.84
2019-01-13T09:54:54.401Z,74.93
2019-01-13T09:57:24.072Z,75.55
2019-01-13T10:03:02.446Z,74.92
2019-01-13T10:11:44.738Z,74.93
2019-01-13T10:14:14.261Z,74.95
2019-01-13T10:16:43.710Z,74.74
2019-01-13T10:19:13.463Z,74.47
2019-01-13T10:24:52.938Z,74.57
2019-01-13T10:27:22.351Z,74.43
2019-01-13T10:29:51.865Z,74.41
2019-01-13T10:32:21.509Z,74.79
2019-01-13T10:34:51.025Z,74.91
2019-01-13T10:37:20.544Z,74.41
2019-01-13T10:39:50.292Z,74.31
2019-01-13T10:42:19.699Z,74.18
2019-01-13T10:45:30.509Z,74.05
2019-01-13T10:50:55.919Z,73.82
2019-01-13T10:53:25.391Z,73.61
2019-01-13T10:55:55.593Z,73.65
2019-01-13T10:58:26.559Z,73.57
2019-01-13T11:00:56.447Z,73.31
2019-01-13T11:03:26.138Z,73.31
2019-01-13T11:05:55.604Z,73.21
2019-01-13T11:08:25.715Z,73.56
2019-01-13T11:11:35.039Z,73.81
2019-01-13T11:14:04.661Z,74.07
2019-01-13T11:17:13.485Z,74.02
2019-01-13T11:22:52.085Z,73.86
2019-01-13T11:25:21.627Z,73.79
2019-01-13T11:28:30.584Z,73.78
2019-01-13T11:31:01.198Z,73.75
2019-01-13T11:33:31.250Z,74.10
2019-01-13T11:36:00.867Z,74.19
2019-01-13T11:38:30.493Z,74.15
2019-01-13T11:41:00.005Z,74.07
2019-01-13T11:43:29.861Z,74.30
2019-01-13T11:49:33.835Z,74.32
2019-01-13T11:55:13.569Z,74.90
2019-01-13T11:57:43.130Z,75.04
2019-01-13T12:00:18.323Z,74.91
2019-01-13T12:06:02.482Z,74.87
2019-01-13T12:11:41.550Z,74.67
2019-01-13T12:17:25.564Z,74.62
2019-01-13T12:19:55.239Z,74.84
2019-01-13T12:23:04.216Z,74.79
2019-01-13T12:25:34.143Z,74.75
2019-01-13T12:37:12.676Z,74.98
2019-01-13T12:46:08.805Z,74.48
2019-01-13T12:52:03.399Z,74.58
2019-01-13T12:54:51.802Z,74.53
2019-01-13T12:57:22.163Z,74.64
2019-01-13T12:59:51.710Z,74.66
2019-01-13T13:02:23.992Z,75.08
2019-01-13T13:04:53.410Z,75.34
2019-01-13T13:07:22.847Z,75.24
2019-01-13T13:09:52.293Z,75.16
2019-01-13T13:12:22.123Z,75.13
2019-01-13T13:14:51.700Z,75.02
2019-01-13T13:17:21.078Z,74.90
2019-01-13T13:19:50.876Z,74.81
2019-01-13T13:22:22.139Z,74.83
2019-01-13T13:24:51.635Z,74.69
2019-01-13T13:27:21.168Z,74.47
2019-01-13T13:29:50.565Z,74.44
2019-01-13T13:32:19.936Z,74.50
2019-01-13T13:34:49.348Z,74.45
2019-01-13T13:37:19.073Z,74.37
2019-01-13T13:39:48.739Z,74.19
2019-01-13T13:42:18.247Z,74.36
2019-01-13T13:44:47.702Z,74.43
2019-01-13T13:47:17.217Z,74.59
2019-01-13T13:49:46.524Z,74.64
2019-01-13T13:52:16.034Z,74.80
2019-01-13T13:55:25.236Z,75.02
2019-01-13T13:57:54.822Z,75.04
2019-01-13T14:00:26.767Z,75.06
2019-01-13T14:02:56.334Z,75.14
2019-01-13T14:05:25.998Z,75.49
2019-01-13T14:07:56.059Z,76.16
2019-01-13T14:10:44.521Z,76.77
2019-01-13T14:13:14.252Z,76.61
2019-01-13T14:16:23.210Z,76.47
2019-01-13T14:22:02.059Z,76.19
2019-01-13T14:25:10.910Z,76.14
2019-01-13T14:28:19.767Z,76.45
2019-01-13T14:33:52.910Z,77.19
2019-01-13T14:36:19.467Z,77.58
2019-01-13T14:42:03.361Z,78.00
2019-01-13T14:44:32.860Z,78.14
2019-01-13T14:47:02.357Z,77.77
2019-01-13T14:49:31.791Z,77.99
2019-01-13T14:52:01.289Z,77.80
2019-01-13T14:54:30.821Z,77.98
2019-01-13T14:57:02.654Z,77.98
2019-01-13T14:59:32.024Z,78.56
2019-01-13T15:02:01.389Z,78.64
2019-01-13T15:04:30.824Z,78.58
2019-01-13T15:07:00.930Z,78.69
2019-01-13T15:09:30.805Z,78.44
2019-01-13T15:12:00.264Z,78.47
2019-01-13T15:18:03.392Z,78.09
2019-01-13T15:20:44.532Z,77.30
2019-01-13T15:23:54.472Z,77.30
2019-01-13T15:26:23.949Z,77.71
2019-01-13T15:28:53.404Z,77.50
2019-01-13T15:31:22.855Z,77.62
2019-01-13T15:34:31.626Z,77.59
2019-01-13T15:37:40.798Z,77.59
2019-01-13T15:42:51.786Z,77.74
2019-01-13T15:46:00.549Z,77.61
2019-01-13T15:49:39.707Z,77.82
2019-01-13T15:54:54.554Z,78.50
2019-01-13T16:00:21.145Z,79.06
2019-01-13T16:02:50.726Z,78.92
2019-01-13T16:05:20.461Z,79.14
2019-01-13T16:07:50.033Z,79.47
2019-01-13T16:10:21.064Z,79.61
2019-01-13T16:12:50.467Z,79.94
2019-01-13T16:15:20.021Z,80.50
2019-01-13T16:17:49.792Z,80.53
2019-01-13T16:20:33.736Z,80.91
2019-01-13T16:23:03.796Z,81.00
2019-01-13T16:25:33.224Z,81.26
2019-01-13T16:28:02.710Z,81.08
2019-01-13T16:30:32.572Z,81.18
2019-01-13T16:33:02.233Z,80.96
2019-01-13T16:35:32.678Z,80.63
2019-01-13T16:38:02.410Z,80.32
2019-01-13T16:40:31.856Z,80.78
2019-01-13T16:43:01.829Z,80.48
2019-01-13T16:45:34.571Z,80.74
2019-01-13T16:48:04.116Z,80.89
2019-01-13T16:50:52.975Z,80.82
2019-01-13T16:56:18.102Z,80.79
2019-01-13T16:59:18.770Z,81.26
2019-01-13T17:01:48.352Z,81.26
2019-01-13T17:04:36.934Z,81.52
2019-01-13T17:07:18.460Z,81.76
2019-01-13T17:09:59.827Z,81.55
2019-01-13T17:12:29.276Z,81.55
2019-01-13T17:15:38.473Z,81.74
2019-01-13T17:21:05.379Z,81.76
2019-01-13T17:23:34.867Z,81.71
2019-01-13T17:26:44.839Z,81.71
2019-01-13T17:29:53.885Z,81.74
2019-01-13T17:33:03.081Z,81.63
2019-01-13T17:39:17.359Z,81.41
2019-01-13T17:41:47.659Z,81.52
2019-01-13T17:44:17.038Z,81.98
2019-01-13T17:46:46.854Z,81.32
2019-01-13T17:49:16.380Z,81.84
2019-01-13T17:51:45.829Z,81.76
2019-01-13T17:54:15.472Z,81.71
2019-01-13T17:56:45.716Z,81.71
2019-01-13T17:59:15.202Z,81.68
2019-01-13T18:01:48.220Z,81.13
2019-01-13T18:04:17.928Z,81.08
2019-01-13T18:06:47.356Z,81.08
2019-01-13T18:09:16.810Z,81.11
2019-01-13T18:11:46.225Z,81.37
2019-01-13T18:14:15.721Z,81.73
2019-01-13T18:16:46.589Z,81.74
2019-01-13T18:19:16.461Z,81.62
2019-01-13T18:21:46.020Z,81.62
2019-01-13T18:24:15.463Z,81.65
2019-01-13T18:26:44.972Z,81.65
2019-01-13T18:29:14.776Z,81.48
2019-01-13T18:31:44.349Z,81.89
2019-01-13T18:34:14.034Z,81.81
2019-01-13T18:39:59.402Z,81.89
2019-01-13T18:42:28.922Z,81.98
2019-01-13T18:44:58.498Z,81.98
2019-01-13T18:47:47.134Z,82.11
2019-01-13T18:53:32.077Z,82.82
2019-01-13T18:56:03.822Z,82.82
2019-01-13T18:58:33.818Z,83.97
2019-01-13T19:01:04.078Z,83.10
2019-01-13T19:03:33.856Z,83.69
2019-01-13T19:06:06.758Z,83.69
2019-01-13T19:08:37.099Z,84.28
2019-01-13T19:11:32.711Z,84.62
2019-01-13T19:14:23.304Z,84.53
2019-01-13T19:17:20.166Z,85.92
2019-01-13T19:20:13.307Z,87.67
2019-01-13T19:22:45.583Z,88.65
2019-01-13T19:25:18.886Z,90.83
2019-01-13T19:27:48.651Z,90.57
2019-01-13T19:30:18.696Z,92.11
2019-01-13T19:32:48.809Z,92.58
2019-01-13T19:35:18.680Z,93.01
2019-01-13T19:37:48.602Z,93.84
2019-01-13T19:40:18.889Z,94.09
2019-01-13T19:42:48.694Z,94.16
2019-01-13T19:45:20.257Z,94.12
2019-01-13T19:47:50.333Z,94.14
2019-01-13T19:50:25.499Z,94.07
2019-01-13T19:52:55.412Z,93.89
2019-01-13T19:55:26.508Z,93.78
2019-01-13T19:57:56.324Z,93.37
2019-01-13T20:00:33.569Z,93.37
2019-01-13T20:03:03.892Z,93.16
2019-01-13T20:05:33.926Z,93.14
2019-01-13T20:08:04.033Z,93.14
2019-01-13T20:10:34.518Z,92.98
2019-01-13T20:13:43.403Z,93.13
2019-01-13T20:16:13.408Z,93.17
2019-01-13T20:18:43.171Z,93.11
2019-01-13T20:21:13.548Z,93.08
2019-01-13T20:23:44.190Z,93.10
2019-01-13T20:26:14.107Z,92.95
2019-01-13T20:29:24.382Z,92.87
2019-01-13T20:35:04.178Z,92.88
2019-01-13T20:37:34.230Z,92.90
2019-01-13T20:40:04.454Z,92.93
2019-01-13T20:42:34.396Z,93.11
2019-01-13T20:45:04.840Z,93.08
2019-01-13T20:47:34.672Z,91.76
2019-01-13T20:50:05.161Z,87.25
2019-01-13T20:52:34.841Z,87.05
2019-01-13T20:55:05.442Z,86.22
2019-01-13T20:58:14.287Z,86.32
2019-01-13T21:11:45.707Z,87.64
2019-01-13T21:17:16.792Z,87.78
2019-01-13T21:19:46.577Z,86.61
2019-01-13T21:22:16.024Z,85.90
2019-01-13T21:24:46.885Z,85.90
2019-01-13T21:27:16.281Z,86.48
2019-01-13T21:29:45.962Z,86.48
2019-01-13T21:32:54.987Z,86.58
2019-01-13T21:35:35.923Z,86.88
2019-01-13T21:38:44.800Z,86.88
2019-01-13T21:44:39.166Z,87.11
2019-01-13T21:47:08.655Z,87.30
2019-01-13T21:49:38.096Z,87.44
2019-01-13T21:52:07.548Z,87.36
2019-01-13T21:54:57.492Z,86.72
2019-01-13T21:58:06.170Z,86.72
2019-01-13T22:00:37.252Z,86.91
2019-01-13T22:03:08.467Z,87.11
2019-01-13T22:05:41.121Z,86.75
2019-01-13T22:08:09.249Z,86.74
2019-01-13T22:11:17.989Z,86.74
2019-01-13T22:13:47.474Z,86.63
2019-01-13T22:16:16.996Z,86.85
2019-01-13T22:18:46.541Z,86.76
2019-01-13T22:21:15.937Z,86.72
2019-01-13T22:24:24.768Z,86.50
2019-01-13T22:27:14.708Z,86.28
2019-01-13T22:29:44.776Z,86.41
2019-01-13T22:32:14.672Z,85.92
2019-01-13T22:34:44.063Z,86.01
2019-01-13T22:37:14.674Z,85.78
2019-01-13T22:42:59.055Z,85.62
2019-01-13T22:48:30.614Z,85.80
2019-01-13T22:51:00.028Z,84.66
2019-01-13T22:53:29.513Z,85.83
2019-01-13T22:55:59.089Z,85.57
2019-01-13T22:58:28.942Z,85.43
2019-01-13T23:01:18.377Z,85.71
2019-01-13T23:03:48.502Z,85.11
2019-01-13T23:06:18.141Z,85.51
2019-01-13T23:08:47.645Z,85.27
2019-01-13T23:11:17.240Z,85.08
2019-01-13T23:13:46.765Z,85.17
2019-01-13T23:16:16.197Z,84.96
2019-01-13T23:18:49.078Z,85.02
2019-01-13T23:21:19.216Z,85.48
2019-01-13T23:23:49.483Z,85.55
2019-01-13T23:26:58.263Z,85.15
2019-01-13T23:29:27.806Z,85.03
2019-01-13T23:31:57.976Z,85.04
2019-01-13T23:35:07.522Z,85.12
2019-01-13T23:43:53.467Z,85.08
2019-01-13T23:49:25.869Z,84.71
2019-01-13T23:52:34.654Z,85.21
2019-01-13T23:58:10.782Z,84.65
